Aérodrome :
LOGIN :

S'inscrire | Disclaimer

   EN    FR    IT 

 










Légende :    VFR   VFR Marginal   IFR   IFR Intensif   IFR Très Intensif
Visi : 
Plafond : 
>= 8 km
>= 3000ft
5 à 8 km
1000 à 3000 ft
1500m à 5 km
500 à 1000 ft
800 à 1500m
200 à 500 ft
< 800m
< 200 ft
Symboles :   Orages  Brouillard  Fortes neiges  Fortes précipitations  Vent > 20 kt
SIGMETs :   Divers  Orages  Givrage  Turbulence  Onde Orograph.  Cendres Volcan.






- Altitude de l'aérodrome : 538 ft
- Code IATA : TNF


LFPN - Toussus Le Noble

DERNIER METAR :
  • 260830Z AUTO 19004KT 160V220 3000 BR OVC003 03/03 Q1016 BECMG 9999 NSW

METARs EXPIRÉS :
  • 260800Z AUTO 20003KT 2600 BR BKN004 BKN035 BKN078 02/02 Q1016 TEMPO NSC BECMG 9999 NSW
  • 260730Z AUTO 18002KT 0600 0400 R25R/0800U UP FG BKN033 BKN080 BKN130 00/M00 Q1016 BECMG 9999 NSW BKN004
  • 260700Z AUTO VRB02KT 1000 0700 R25R/1000D BCFG FEW036 BKN130 BKN150 00/M00 Q1016 TEMPO 0400 FG VV///
  • 260630Z AUTO 20003KT 1600 0550 R25R/P2000 BCFG NSC 00/M00 Q1016 TEMPO 1200 BR VV///
  • 260600Z AUTO VRB02KT 0450 0400 R25R/0600U FG FEW004 01/00 Q1016 TEMPO VV///

TAF TAF LFPN
Valide du 26 à 09h jusqu'au 26 à 18h UTC


260800Z 2609/2618 20010KT 6000 BKN006
TEMPO 2609/2614 18005KT 2500 BR BKN003
TEMPO 2614/2618 9999 SCT009 BKN014
ATIS : +33 1 39 56 54 70



MET'MAP, la Météo Aéronautique d'un coup d'oeil ! - Copyright ORBIFLY Décembre 2007 - Disclaimer

ORBIFLY MET'MAP TEAM :

Programmation & Développement : Alexandra Zaïnal
Sur une idée originale de : Baudouin d'Aumeries
Assistance à la programmation : Marc-Olivier Méhu
Soutien technique & logistique : Manuel Goepfert

Contact : metmap@orbifly.com




SOURCES & CREDITS :

   NOAA